createdAt,value
2022-12-29T00:02:22.922Z,92.80
2022-12-29T00:04:52.649Z,92.80
2022-12-29T00:07:19.425Z,92.90
2022-12-29T00:09:46.224Z,92.80
2022-12-29T00:12:12.993Z,92.80
2022-12-29T00:14:58.459Z,92.90
2022-12-29T00:17:25.192Z,92.90
2022-12-29T00:20:10.682Z,93.00
2022-12-29T00:22:55.936Z,93.00
2022-12-29T00:25:41.453Z,93.00
2022-12-29T00:28:29.665Z,93.00
2022-12-29T00:31:18.579Z,93.00
2022-12-29T00:34:04.047Z,93.00
2022-12-29T00:36:39.787Z,93.00
2022-12-29T00:39:35.400Z,93.00
2022-12-29T00:42:24.009Z,93.00
2022-12-29T00:44:50.764Z,93.10
2022-12-29T00:47:17.591Z,93.10
2022-12-29T00:49:45.154Z,93.10
2022-12-29T00:52:12.592Z,93.00
2022-12-29T00:54:40.251Z,93.10
2022-12-29T00:57:08.531Z,93.10
2022-12-29T00:59:39.099Z,93.10
2022-12-29T01:02:06.128Z,93.10
2022-12-29T01:04:33.238Z,93.10
2022-12-29T01:07:00.013Z,93.10
2022-12-29T01:09:45.626Z,93.20
2022-12-29T01:12:12.853Z,93.20
2022-12-29T01:14:39.824Z,93.20
2022-12-29T01:17:07.206Z,93.20
2022-12-29T01:19:34.348Z,93.20
2022-12-29T01:22:01.116Z,93.20
2022-12-29T01:24:27.930Z,93.20
2022-12-29T01:26:55.664Z,93.30
2022-12-29T01:29:22.894Z,93.20
2022-12-29T01:31:50.997Z,93.20
2022-12-29T01:34:18.572Z,93.20
2022-12-29T01:36:45.297Z,93.30
2022-12-29T01:39:12.127Z,93.30
2022-12-29T01:41:38.886Z,93.30
2022-12-29T01:44:25.702Z,93.30
2022-12-29T01:46:52.560Z,93.40
2022-12-29T01:49:28.619Z,93.30
2022-12-29T01:51:57.638Z,93.30
2022-12-29T01:54:36.652Z,93.30
2022-12-29T01:57:06.220Z,93.50
2022-12-29T01:59:36.975Z,93.40
2022-12-29T02:02:04.073Z,93.40
2022-12-29T02:04:33.186Z,93.40
2022-12-29T02:07:02.959Z,93.50
2022-12-29T02:09:29.844Z,93.40
2022-12-29T02:11:57.518Z,93.50
2022-12-29T02:14:24.346Z,93.50
2022-12-29T02:17:00.257Z,93.50
2022-12-29T02:19:29.761Z,93.40
2022-12-29T02:21:59.597Z,93.50
2022-12-29T02:24:35.525Z,93.50
2022-12-29T02:27:13.431Z,93.60
2022-12-29T02:30:00.437Z,93.50
2022-12-29T02:32:27.114Z,93.60
2022-12-29T02:34:56.884Z,93.60
2022-12-29T02:37:25.984Z,93.70
2022-12-29T02:40:19.932Z,93.70
2022-12-29T02:42:46.803Z,93.70
2022-12-29T02:45:32.462Z,93.60
2022-12-29T02:47:59.278Z,93.70
2022-12-29T02:50:39.696Z,93.70
2022-12-29T02:53:08.860Z,93.60
2022-12-29T02:55:35.691Z,93.70
2022-12-29T02:58:22.205Z,93.70
2022-12-29T03:01:07.369Z,93.70
2022-12-29T03:03:34.392Z,93.70
2022-12-29T03:06:16.166Z,93.70
2022-12-29T03:08:44.851Z,93.70
2022-12-29T03:11:31.999Z,93.80
2022-12-29T03:14:36.231Z,93.80
2022-12-29T03:17:11.081Z,93.80
2022-12-29T03:19:41.317Z,93.80
2022-12-29T03:22:31.839Z,93.80
2022-12-29T03:25:00.854Z,93.90
2022-12-29T03:27:30.230Z,93.90
2022-12-29T03:29:59.091Z,93.90
2022-12-29T03:32:28.288Z,93.90
2022-12-29T03:34:55.821Z,93.90
2022-12-29T03:37:24.892Z,93.90
2022-12-29T03:39:51.818Z,94.00
2022-12-29T03:42:24.912Z,94.00
2022-12-29T03:44:54.564Z,93.90
2022-12-29T03:47:21.717Z,94.00
2022-12-29T03:49:48.670Z,94.00
2022-12-29T03:52:15.678Z,94.00
2022-12-29T03:54:42.441Z,94.10
2022-12-29T03:57:09.675Z,94.10
2022-12-29T03:59:36.482Z,94.50
2022-12-29T04:02:03.316Z,94.10
2022-12-29T04:04:30.127Z,94.10
2022-12-29T04:06:56.961Z,94.10
2022-12-29T04:09:23.683Z,94.10
2022-12-29T04:11:50.379Z,94.10
2022-12-29T04:14:17.249Z,94.10
2022-12-29T04:16:45.081Z,94.10
2022-12-29T04:19:11.807Z,94.10
2022-12-29T04:21:38.727Z,94.10
2022-12-29T04:24:07.576Z,94.10
2022-12-29T04:26:34.373Z,94.20
2022-12-29T04:29:01.229Z,94.20
2022-12-29T04:31:27.973Z,94.20
2022-12-29T04:33:54.683Z,94.30
2022-12-29T04:36:25.353Z,94.20
2022-12-29T04:38:56.363Z,94.20
2022-12-29T04:41:23.223Z,94.30
2022-12-29T04:43:49.956Z,94.30
2022-12-29T04:46:16.936Z,94.30
2022-12-29T04:48:45.012Z,94.30
2022-12-29T04:51:21.343Z,94.30
2022-12-29T04:53:56.738Z,94.30
2022-12-29T04:56:23.455Z,94.40
2022-12-29T04:58:50.153Z,94.40
2022-12-29T05:01:17.132Z,94.40
2022-12-29T05:03:44.074Z,94.30
2022-12-29T05:06:10.803Z,94.40
2022-12-29T05:08:37.631Z,94.50
2022-12-29T05:11:04.375Z,94.40
2022-12-29T05:13:31.129Z,94.20
2022-12-29T05:15:58.091Z,94.20
2022-12-29T05:18:24.861Z,93.90
2022-12-29T05:20:51.623Z,93.60
2022-12-29T05:23:18.494Z,93.20
2022-12-29T05:25:48.549Z,92.80
2022-12-29T05:28:15.848Z,92.40
2022-12-29T05:30:42.687Z,92.20
2022-12-29T05:33:12.594Z,92.00
2022-12-29T05:35:39.389Z,91.90
2022-12-29T05:38:06.224Z,91.80
2022-12-29T05:40:32.954Z,91.70
2022-12-29T05:42:59.655Z,91.80
2022-12-29T05:45:26.643Z,91.60
2022-12-29T05:47:53.388Z,91.60
2022-12-29T05:50:20.141Z,91.60
2022-12-29T05:52:47.003Z,91.60
2022-12-29T05:55:13.969Z,91.70
2022-12-29T05:57:41.301Z,91.60
2022-12-29T06:00:08.391Z,91.60
2022-12-29T06:02:35.230Z,91.60
2022-12-29T06:05:01.995Z,91.70
2022-12-29T06:07:29.070Z,91.60
2022-12-29T06:09:55.798Z,91.60
2022-12-29T06:12:22.525Z,91.60
2022-12-29T06:14:49.498Z,91.70
2022-12-29T06:17:16.309Z,91.50
2022-12-29T06:19:45.068Z,91.50
2022-12-29T06:22:13.313Z,91.50
2022-12-29T06:24:40.502Z,91.40
2022-12-29T06:27:07.438Z,91.50
2022-12-29T06:29:36.135Z,91.40
2022-12-29T06:32:03.004Z,91.30
2022-12-29T06:34:29.869Z,91.40
2022-12-29T06:36:56.611Z,91.20
2022-12-29T06:39:23.292Z,91.30
2022-12-29T06:41:52.630Z,91.30
2022-12-29T06:44:19.482Z,91.30
2022-12-29T06:46:46.214Z,91.20
2022-12-29T06:49:12.972Z,91.10
2022-12-29T06:51:39.785Z,91.10
2022-12-29T06:54:06.888Z,91.00
2022-12-29T06:56:33.674Z,91.00
2022-12-29T06:59:03.498Z,91.00
2022-12-29T07:01:30.324Z,91.20
2022-12-29T07:03:57.108Z,91.30
2022-12-29T07:06:23.923Z,91.10
2022-12-29T07:08:50.656Z,91.10
2022-12-29T07:11:17.453Z,91.00
2022-12-29T07:13:44.270Z,91.10
2022-12-29T07:16:11.456Z,91.10
2022-12-29T07:18:38.302Z,91.20
2022-12-29T07:21:05.280Z,91.30
2022-12-29T07:23:32.094Z,91.20
2022-12-29T07:26:05.962Z,91.10
2022-12-29T07:28:33.339Z,91.20
2022-12-29T07:31:00.258Z,91.10
2022-12-29T07:33:29.492Z,91.10
2022-12-29T07:35:56.243Z,91.10
2022-12-29T07:38:23.073Z,91.10
2022-12-29T07:40:50.037Z,91.10
2022-12-29T07:43:16.849Z,91.20
2022-12-29T07:45:43.954Z,91.20
2022-12-29T07:48:10.929Z,91.20
2022-12-29T07:50:38.046Z,91.10
2022-12-29T07:53:05.041Z,91.10
2022-12-29T07:55:31.922Z,91.20
2022-12-29T07:57:58.626Z,91.10
2022-12-29T08:00:25.513Z,91.00
2022-12-29T08:02:52.511Z,90.80
2022-12-29T08:05:19.361Z,91.20
2022-12-29T08:07:47.464Z,90.90
2022-12-29T08:10:15.006Z,91.00
2022-12-29T08:12:42.215Z,91.20
2022-12-29T08:15:10.054Z,91.10
2022-12-29T08:17:37.008Z,91.70
2022-12-29T08:20:03.993Z,92.00
2022-12-29T08:22:30.752Z,92.40
2022-12-29T08:24:57.588Z,92.10
2022-12-29T08:27:24.335Z,91.70
2022-12-29T08:29:51.137Z,91.40
2022-12-29T08:32:18.198Z,91.00
2022-12-29T08:34:45.069Z,90.30
2022-12-29T08:37:11.873Z,90.90
2022-12-29T08:39:39.300Z,90.70
2022-12-29T08:42:06.063Z,90.70
2022-12-29T08:44:32.814Z,90.70
2022-12-29T08:46:59.564Z,90.50
2022-12-29T08:49:26.411Z,90.30
2022-12-29T08:51:53.243Z,90.50
2022-12-29T08:54:20.020Z,90.80
2022-12-29T08:56:46.724Z,90.70
2022-12-29T08:59:13.471Z,90.80
2022-12-29T09:01:41.888Z,90.70
2022-12-29T09:04:17.667Z,90.80
2022-12-29T09:06:45.634Z,90.30
2022-12-29T09:09:12.656Z,90.50
2022-12-29T09:11:39.595Z,90.70
2022-12-29T09:14:06.439Z,90.60
2022-12-29T09:16:33.950Z,90.40
2022-12-29T09:19:01.147Z,90.40
2022-12-29T09:21:30.644Z,90.50
2022-12-29T09:23:57.787Z,90.50
2022-12-29T09:26:24.497Z,90.30
2022-12-29T09:28:51.388Z,90.40
2022-12-29T09:31:18.185Z,90.70
2022-12-29T09:33:44.946Z,90.70
2022-12-29T09:36:11.785Z,91.10
2022-12-29T09:38:38.584Z,91.50
2022-12-29T09:41:17.975Z,91.80
2022-12-29T09:43:45.169Z,91.90
2022-12-29T09:46:35.123Z,92.10
2022-12-29T09:49:01.867Z,92.30
2022-12-29T09:51:28.887Z,92.40
2022-12-29T09:54:01.545Z,92.40
2022-12-29T09:56:28.871Z,92.10
2022-12-29T09:58:59.180Z,91.70
2022-12-29T10:01:29.159Z,91.60
2022-12-29T10:03:56.882Z,91.40
2022-12-29T10:06:26.424Z,91.10
2022-12-29T10:09:03.598Z,91.10
2022-12-29T10:11:42.553Z,90.90
2022-12-29T10:14:13.824Z,90.80
2022-12-29T10:16:54.415Z,90.90
2022-12-29T10:19:21.201Z,91.00
2022-12-29T10:21:57.107Z,91.20
2022-12-29T10:24:25.754Z,91.50
2022-12-29T10:26:52.688Z,92.00
2022-12-29T10:29:21.051Z,91.90
2022-12-29T10:31:56.253Z,91.20
2022-12-29T10:34:35.299Z,90.90
2022-12-29T10:37:05.160Z,90.60
2022-12-29T10:39:35.151Z,90.20
2022-12-29T10:42:04.660Z,89.60
2022-12-29T10:44:32.449Z,89.60
2022-12-29T10:47:01.778Z,90.00
2022-12-29T10:49:29.642Z,90.00
2022-12-29T10:51:58.392Z,90.00
2022-12-29T10:54:34.773Z,90.10
2022-12-29T10:57:03.246Z,90.10
2022-12-29T10:59:33.692Z,90.20
2022-12-29T11:02:06.579Z,90.00
2022-12-29T11:04:39.403Z,89.40
2022-12-29T11:07:11.960Z,89.20
2022-12-29T11:09:43.591Z,90.00
2022-12-29T11:12:20.212Z,90.50
2022-12-29T11:14:47.025Z,90.60
2022-12-29T11:17:18.298Z,90.70
2022-12-29T11:19:45.080Z,90.40
2022-12-29T11:22:21.345Z,89.90
2022-12-29T11:24:48.810Z,89.60
2022-12-29T11:27:17.093Z,89.70
2022-12-29T11:29:44.415Z,89.50
2022-12-29T11:32:12.600Z,89.20
2022-12-29T11:34:39.528Z,89.20
2022-12-29T11:37:11.163Z,89.50
2022-12-29T11:39:40.386Z,89.50
2022-12-29T11:42:12.112Z,89.40
2022-12-29T11:44:42.941Z,89.70
2022-12-29T11:47:13.213Z,89.90
2022-12-29T11:49:40.094Z,90.00
2022-12-29T11:52:07.950Z,90.00
2022-12-29T11:54:35.802Z,90.00
2022-12-29T11:57:15.962Z,90.20
2022-12-29T11:59:50.208Z,90.50
2022-12-29T12:02:42.094Z,90.90
2022-12-29T12:05:12.082Z,91.30
2022-12-29T12:07:43.839Z,91.60
2022-12-29T12:10:39.674Z,91.80
2022-12-29T12:13:26.729Z,91.80
2022-12-29T12:15:58.432Z,92.00
2022-12-29T12:18:25.282Z,91.60
2022-12-29T12:20:57.539Z,91.20
2022-12-29T12:23:27.273Z,90.90
2022-12-29T12:26:14.772Z,90.70
2022-12-29T12:28:41.858Z,90.60
2022-12-29T12:31:18.498Z,90.60
2022-12-29T12:33:47.862Z,90.50
2022-12-29T12:36:17.674Z,90.40
2022-12-29T12:39:09.683Z,90.50
2022-12-29T12:41:45.631Z,90.70
2022-12-29T12:44:12.417Z,90.90
2022-12-29T12:46:42.574Z,91.10
2022-12-29T12:49:18.273Z,91.60
2022-12-29T12:52:05.464Z,91.90
2022-12-29T12:54:47.671Z,92.10
2022-12-29T12:57:14.412Z,92.20
2022-12-29T12:59:59.937Z,92.30
2022-12-29T13:02:32.837Z,92.40
2022-12-29T13:05:05.631Z,92.10
2022-12-29T13:07:38.279Z,91.50
2022-12-29T13:10:14.394Z,91.10
2022-12-29T13:12:53.407Z,90.90
2022-12-29T13:15:29.383Z,90.70
2022-12-29T13:18:16.363Z,90.60
2022-12-29T13:20:48.494Z,90.60
2022-12-29T13:23:29.762Z,90.70
2022-12-29T13:26:02.669Z,90.90
2022-12-29T13:28:32.409Z,91.30
2022-12-29T13:31:10.661Z,91.50
2022-12-29T13:33:56.139Z,91.80
2022-12-29T13:36:27.151Z,92.00
2022-12-29T13:39:03.328Z,92.00
2022-12-29T13:41:38.470Z,92.10
2022-12-29T13:44:06.481Z,92.10
2022-12-29T13:46:36.426Z,91.60
2022-12-29T13:49:06.141Z,91.10
2022-12-29T13:51:33.369Z,90.90
2022-12-29T13:54:15.284Z,90.90
2022-12-29T13:56:45.099Z,90.60
2022-12-29T13:59:11.864Z,90.50
2022-12-29T14:01:46.836Z,90.50
2022-12-29T14:04:15.350Z,90.50
2022-12-29T14:06:43.400Z,90.70
2022-12-29T14:09:35.162Z,91.10
2022-12-29T14:12:02.528Z,91.50
2022-12-29T14:14:31.539Z,91.70
2022-12-29T14:17:14.880Z,91.90
2022-12-29T14:19:44.730Z,92.20
2022-12-29T14:22:12.283Z,92.40
2022-12-29T14:24:46.795Z,92.40
2022-12-29T14:27:13.514Z,92.50
2022-12-29T14:29:40.246Z,92.50
2022-12-29T14:32:22.432Z,92.60
2022-12-29T14:34:52.540Z,92.60
2022-12-29T14:37:30.041Z,92.60
2022-12-29T14:40:02.951Z,92.60
2022-12-29T14:42:30.697Z,92.50
2022-12-29T14:45:03.582Z,92.20
2022-12-29T14:47:42.316Z,91.80
2022-12-29T14:50:14.168Z,91.50
2022-12-29T14:53:07.564Z,91.20
2022-12-29T14:55:43.482Z,91.20
2022-12-29T14:58:14.086Z,91.00
2022-12-29T15:00:41.174Z,90.90
2022-12-29T15:03:09.384Z,91.00
2022-12-29T15:05:38.572Z,91.20
2022-12-29T15:08:06.617Z,91.50
2022-12-29T15:10:36.862Z,91.80
2022-12-29T15:13:05.732Z,92.20
2022-12-29T15:15:37.434Z,91.60
2022-12-29T15:18:33.343Z,91.40
2022-12-29T15:21:01.400Z,92.00
2022-12-29T15:23:28.386Z,92.00
2022-12-29T15:25:56.996Z,92.00
2022-12-29T15:28:24.206Z,91.50
2022-12-29T15:30:52.027Z,91.30
2022-12-29T15:33:19.613Z,91.20
2022-12-29T15:35:50.350Z,90.40
2022-12-29T15:38:26.232Z,90.20
2022-12-29T15:41:03.665Z,90.10
2022-12-29T15:43:46.995Z,90.10
2022-12-29T15:46:14.832Z,90.30
2022-12-29T15:48:41.694Z,90.10
2022-12-29T15:51:17.477Z,90.10
2022-12-29T15:53:47.480Z,90.20
2022-12-29T15:56:14.334Z,90.20
2022-12-29T15:58:45.600Z,90.30
2022-12-29T16:01:18.668Z,90.70
2022-12-29T16:03:46.208Z,91.30
2022-12-29T16:06:30.188Z,91.60
2022-12-29T16:09:05.005Z,91.80
2022-12-29T16:11:34.763Z,92.00
2022-12-29T16:14:02.109Z,92.00
2022-12-29T16:16:29.481Z,92.10
2022-12-29T16:18:58.276Z,91.50
2022-12-29T16:21:34.251Z,91.20
2022-12-29T16:24:02.904Z,90.90
2022-12-29T16:26:30.302Z,90.60
2022-12-29T16:28:58.677Z,90.10
2022-12-29T16:31:49.088Z,89.20
2022-12-29T16:34:44.054Z,90.30
2022-12-29T16:37:30.687Z,90.10
2022-12-29T16:39:57.859Z,90.70
2022-12-29T16:42:51.374Z,90.90
2022-12-29T16:45:19.170Z,90.70
2022-12-29T16:48:08.921Z,90.60
2022-12-29T16:50:36.814Z,91.00
2022-12-29T16:53:04.723Z,91.20
2022-12-29T16:55:31.719Z,91.30
2022-12-29T16:58:00.297Z,91.30
2022-12-29T17:00:28.020Z,91.40
2022-12-29T17:02:57.419Z,91.10
2022-12-29T17:05:24.914Z,90.80
2022-12-29T17:07:55.959Z,90.20
2022-12-29T17:10:42.759Z,90.40
2022-12-29T17:13:09.660Z,89.40
2022-12-29T17:15:36.674Z,90.10
2022-12-29T17:18:06.419Z,89.80
2022-12-29T17:20:36.897Z,90.00
2022-12-29T17:23:12.249Z,89.80
2022-12-29T17:25:39.287Z,89.60
2022-12-29T17:28:22.667Z,90.00
2022-12-29T17:30:50.023Z,90.00
2022-12-29T17:33:18.610Z,90.30
2022-12-29T17:35:48.369Z,90.40
2022-12-29T17:38:20.003Z,90.60
2022-12-29T17:40:47.067Z,91.40
2022-12-29T17:43:14.864Z,90.40
2022-12-29T17:45:41.939Z,91.00
2022-12-29T17:48:15.718Z,91.50
2022-12-29T17:50:42.841Z,91.40
2022-12-29T17:53:13.960Z,91.30
2022-12-29T17:55:41.334Z,91.20
2022-12-29T17:58:22.143Z,90.90
2022-12-29T18:00:49.997Z,90.50
2022-12-29T18:03:17.926Z,90.20
2022-12-29T18:05:44.967Z,90.00
2022-12-29T18:08:12.581Z,90.20
2022-12-29T18:10:40.053Z,90.10
2022-12-29T18:13:07.227Z,89.80
2022-12-29T18:15:35.552Z,90.00
2022-12-29T18:18:06.488Z,90.20
2022-12-29T18:20:33.234Z,90.30
2022-12-29T18:23:00.086Z,90.50
2022-12-29T18:25:40.603Z,90.80
2022-12-29T18:28:07.681Z,91.20
2022-12-29T18:30:35.501Z,91.40
2022-12-29T18:33:02.248Z,91.60
2022-12-29T18:35:32.856Z,91.60
2022-12-29T18:37:59.593Z,91.70
2022-12-29T18:40:26.328Z,91.70
2022-12-29T18:42:53.124Z,91.80
2022-12-29T18:45:20.750Z,91.40
2022-12-29T18:47:47.732Z,91.10
2022-12-29T18:50:14.789Z,90.70
2022-12-29T18:52:41.624Z,90.60
2022-12-29T18:55:16.308Z,90.50
2022-12-29T18:57:43.106Z,90.30
2022-12-29T19:00:10.573Z,90.10
2022-12-29T19:02:37.405Z,90.10
2022-12-29T19:05:07.990Z,90.00
2022-12-29T19:07:35.601Z,90.10
2022-12-29T19:10:02.469Z,90.20
2022-12-29T19:12:29.324Z,90.40
2022-12-29T19:14:56.170Z,91.00
2022-12-29T19:17:22.956Z,91.30
2022-12-29T19:19:49.699Z,91.70
2022-12-29T19:22:16.411Z,91.90
2022-12-29T19:24:43.345Z,92.20
2022-12-29T19:27:10.085Z,92.30
2022-12-29T19:29:36.856Z,92.20
2022-12-29T19:32:03.735Z,92.10
2022-12-29T19:34:30.530Z,92.30
2022-12-29T19:36:57.291Z,92.20
2022-12-29T19:39:24.097Z,92.20
2022-12-29T19:41:50.876Z,92.30
2022-12-29T19:44:17.696Z,92.40
2022-12-29T19:46:44.557Z,92.40
2022-12-29T19:49:11.732Z,92.40
2022-12-29T19:51:38.547Z,92.40
2022-12-29T19:54:05.453Z,92.40
2022-12-29T19:56:32.248Z,92.60
2022-12-29T19:58:58.960Z,92.60
2022-12-29T20:01:26.310Z,92.60
2022-12-29T20:03:53.222Z,92.60
2022-12-29T20:06:19.999Z,92.70
2022-12-29T20:08:46.819Z,92.50
2022-12-29T20:11:17.938Z,92.70
2022-12-29T20:13:45.167Z,92.70
2022-12-29T20:16:13.704Z,92.70
2022-12-29T20:18:40.909Z,92.80
2022-12-29T20:21:08.971Z,92.70
2022-12-29T20:23:37.521Z,92.70
2022-12-29T20:26:04.418Z,92.70
2022-12-29T20:28:31.340Z,92.80
2022-12-29T20:30:58.211Z,92.80
2022-12-29T20:33:25.295Z,92.60
2022-12-29T20:35:52.297Z,92.90
2022-12-29T20:38:19.200Z,92.80
2022-12-29T20:40:47.121Z,92.80
2022-12-29T20:43:14.721Z,92.70
2022-12-29T20:45:41.879Z,92.80
2022-12-29T20:48:08.730Z,92.70
2022-12-29T20:50:35.626Z,92.80
2022-12-29T20:53:02.561Z,92.80
2022-12-29T20:55:29.371Z,92.80
2022-12-29T20:58:26.259Z,92.70
2022-12-29T21:00:43.095Z,92.80
2022-12-29T21:03:09.949Z,92.70
2022-12-29T21:05:37.908Z,92.60
2022-12-29T21:08:05.129Z,92.70
2022-12-29T21:10:31.958Z,92.60
2022-12-29T21:12:58.690Z,92.60
2022-12-29T21:15:25.451Z,92.60
2022-12-29T21:17:52.173Z,92.50
2022-12-29T21:20:21.848Z,92.70
2022-12-29T21:22:48.719Z,92.60
2022-12-29T21:25:15.529Z,92.60
2022-12-29T21:27:44.219Z,92.60
2022-12-29T21:30:11.502Z,92.60
2022-12-29T21:32:38.616Z,92.60
2022-12-29T21:35:05.671Z,92.60
2022-12-29T21:37:32.684Z,92.60
2022-12-29T21:39:59.493Z,92.60
2022-12-29T21:42:29.127Z,92.60
2022-12-29T21:45:20.077Z,92.60
2022-12-29T21:48:06.514Z,92.70
2022-12-29T21:50:33.376Z,92.60
2022-12-29T21:53:00.431Z,92.60
2022-12-29T21:55:27.414Z,92.60
2022-12-29T21:58:12.971Z,92.60
2022-12-29T22:00:58.183Z,92.50
2022-12-29T22:03:43.402Z,92.50
2022-12-29T22:06:29.221Z,92.50
2022-12-29T22:09:14.575Z,92.60
2022-12-29T22:11:59.824Z,92.60
2022-12-29T22:14:26.679Z,92.60
2022-12-29T22:16:53.500Z,92.60
2022-12-29T22:19:20.302Z,92.70
2022-12-29T22:21:47.038Z,92.60
2022-12-29T22:24:13.871Z,92.50
2022-12-29T22:26:40.645Z,92.60
2022-12-29T22:29:07.566Z,92.60
2022-12-29T22:31:34.429Z,92.60
2022-12-29T22:34:02.558Z,92.70
2022-12-29T22:36:29.576Z,92.70
2022-12-29T22:38:56.552Z,92.60
2022-12-29T22:41:23.412Z,92.70
2022-12-29T22:43:50.434Z,92.60
2022-12-29T22:46:17.208Z,92.50
2022-12-29T22:48:43.958Z,92.60
2022-12-29T22:51:10.913Z,92.60
2022-12-29T22:53:37.759Z,92.60
2022-12-29T22:56:08.875Z,92.60
2022-12-29T22:58:35.918Z,92.60
2022-12-29T23:01:02.863Z,92.70
2022-12-29T23:03:29.763Z,92.70
2022-12-29T23:06:00.165Z,92.80
2022-12-29T23:08:27.996Z,92.80
2022-12-29T23:10:54.744Z,92.70
2022-12-29T23:13:21.570Z,92.80
2022-12-29T23:15:48.518Z,92.80
2022-12-29T23:18:16.009Z,92.80
2022-12-29T23:20:43.295Z,92.90
2022-12-29T23:23:10.370Z,92.80
2022-12-29T23:25:37.553Z,92.90
2022-12-29T23:28:04.827Z,92.80
2022-12-29T23:30:31.654Z,92.80
2022-12-29T23:32:58.399Z,92.80
2022-12-29T23:35:25.251Z,92.80
2022-12-29T23:37:52.007Z,92.90
2022-12-29T23:40:18.747Z,92.80
2022-12-29T23:42:45.550Z,92.90
2022-12-29T23:45:12.393Z,92.80
2022-12-29T23:47:39.105Z,93.00
2022-12-29T23:50:06.108Z,92.90
2022-12-29T23:52:32.916Z,92.90
2022-12-29T23:54:59.682Z,92.90
2022-12-29T23:57:28.489Z,92.80
2022-12-29T23:59:55.238Z,92.80
